sensor_id;sensor_type;location;lat;lon;timestamp;P1;durP1;ratioP1;P2;durP2;ratioP2
9854;SDS011;4966;48.112;9.282;2022-07-29T00:01:57;10.38;;;4.35;;
9854;SDS011;4966;48.112;9.282;2022-07-29T00:04:23;9.82;;;4.13;;
9854;SDS011;4966;48.112;9.282;2022-07-29T00:06:48;20.80;;;5.30;;
9854;SDS011;4966;48.112;9.282;2022-07-29T00:09:14;8.25;;;3.88;;
9854;SDS011;4966;48.112;9.282;2022-07-29T00:11:39;8.32;;;3.78;;
9854;SDS011;4966;48.112;9.282;2022-07-29T00:14:04;10.63;;;3.72;;
9854;SDS011;4966;48.112;9.282;2022-07-29T00:16:30;10.00;;;3.85;;
9854;SDS011;4966;48.112;9.282;2022-07-29T00:18:55;8.82;;;3.78;;
9854;SDS011;4966;48.112;9.282;2022-07-29T00:21:21;7.97;;;4.88;;
9854;SDS011;4966;48.112;9.282;2022-07-29T00:23:46;8.05;;;4.43;;
9854;SDS011;4966;48.112;9.282;2022-07-29T00:26:11;8.13;;;4.25;;
9854;SDS011;4966;48.112;9.282;2022-07-29T00:28:37;6.00;;;4.13;;
9854;SDS011;4966;48.112;9.282;2022-07-29T00:31:02;7.80;;;4.53;;
9854;SDS011;4966;48.112;9.282;2022-07-29T00:33:28;7.28;;;4.25;;
9854;SDS011;4966;48.112;9.282;2022-07-29T00:35:54;9.85;;;4.60;;
9854;SDS011;4966;48.112;9.282;2022-07-29T00:38:19;10.93;;;4.38;;
9854;SDS011;4966;48.112;9.282;2022-07-29T00:40:45;18.88;;;5.07;;
9854;SDS011;4966;48.112;9.282;2022-07-29T00:43:11;13.23;;;4.70;;
9854;SDS011;4966;48.112;9.282;2022-07-29T00:45:38;7.72;;;4.63;;
9854;SDS011;4966;48.112;9.282;2022-07-29T00:48:03;9.70;;;4.47;;
9854;SDS011;4966;48.112;9.282;2022-07-29T00:50:30;9.52;;;4.30;;
9854;SDS011;4966;48.112;9.282;2022-07-29T00:52:56;11.75;;;4.90;;
9854;SDS011;4966;48.112;9.282;2022-07-29T00:55:21;8.40;;;3.95;;
9854;SDS011;4966;48.112;9.282;2022-07-29T00:57:47;6.57;;;3.85;;
9854;SDS011;4966;48.112;9.282;2022-07-29T01:00:14;6.03;;;4.00;;
9854;SDS011;4966;48.112;9.282;2022-07-29T01:02:42;9.63;;;4.05;;
9854;SDS011;4966;48.112;9.282;2022-07-29T01:05:08;4.93;;;3.25;;
9854;SDS011;4966;48.112;9.282;2022-07-29T01:07:34;6.60;;;3.47;;
9854;SDS011;4966;48.112;9.282;2022-07-29T01:10:02;12.43;;;3.83;;
9854;SDS011;4966;48.112;9.282;2022-07-29T01:12:29;22.02;;;3.88;;
9854;SDS011;4966;48.112;9.282;2022-07-29T01:14:58;40.10;;;5.60;;
9854;SDS011;4966;48.112;9.282;2022-07-29T01:17:27;19.15;;;3.65;;
9854;SDS011;4966;48.112;9.282;2022-07-29T01:30:57;9.60;;;4.63;;
9854;SDS011;4966;48.112;9.282;2022-07-29T01:33:26;7.75;;;4.30;;
9854;SDS011;4966;48.112;9.282;2022-07-29T01:36:13;6.65;;;4.20;;
9854;SDS011;4966;48.112;9.282;2022-07-29T01:38:58;8.85;;;4.20;;
9854;SDS011;4966;48.112;9.282;2022-07-29T01:41:31;6.15;;;4.05;;
9854;SDS011;4966;48.112;9.282;2022-07-29T01:44:02;23.33;;;4.03;;
9854;SDS011;4966;48.112;9.282;2022-07-29T01:46:37;14.13;;;3.97;;
9854;SDS011;4966;48.112;9.282;2022-07-29T01:49:11;14.77;;;4.03;;
9854;SDS011;4966;48.112;9.282;2022-07-29T01:51:54;6.18;;;4.00;;
9854;SDS011;4966;48.112;9.282;2022-07-29T01:54:30;5.25;;;3.78;;
9854;SDS011;4966;48.112;9.282;2022-07-29T01:57:00;7.88;;;4.60;;
9854;SDS011;4966;48.112;9.282;2022-07-29T01:59:28;6.22;;;4.10;;
9854;SDS011;4966;48.112;9.282;2022-07-29T02:01:57;8.43;;;4.25;;
9854;SDS011;4966;48.112;9.282;2022-07-29T02:04:23;5.25;;;3.75;;
9854;SDS011;4966;48.112;9.282;2022-07-29T02:06:51;5.90;;;3.83;;
9854;SDS011;4966;48.112;9.282;2022-07-29T02:09:19;13.70;;;5.03;;
9854;SDS011;4966;48.112;9.282;2022-07-29T02:11:51;8.15;;;4.30;;
9854;SDS011;4966;48.112;9.282;2022-07-29T02:14:20;5.32;;;4.13;;
9854;SDS011;4966;48.112;9.282;2022-07-29T02:16:48;8.57;;;4.45;;
9854;SDS011;4966;48.112;9.282;2022-07-29T02:19:18;12.63;;;4.18;;
9854;SDS011;4966;48.112;9.282;2022-07-29T02:21:46;10.55;;;4.18;;
9854;SDS011;4966;48.112;9.282;2022-07-29T02:24:12;5.85;;;3.60;;
9854;SDS011;4966;48.112;9.282;2022-07-29T02:26:38;7.18;;;4.00;;
9854;SDS011;4966;48.112;9.282;2022-07-29T02:29:06;5.75;;;3.70;;
9854;SDS011;4966;48.112;9.282;2022-07-29T02:31:33;10.18;;;3.63;;
9854;SDS011;4966;48.112;9.282;2022-07-29T02:34:01;4.68;;;3.63;;
9854;SDS011;4966;48.112;9.282;2022-07-29T02:36:28;6.15;;;3.33;;
9854;SDS011;4966;48.112;9.282;2022-07-29T02:38:55;8.77;;;3.92;;
9854;SDS011;4966;48.112;9.282;2022-07-29T02:44:24;9.35;;;4.60;;
9854;SDS011;4966;48.112;9.282;2022-07-29T02:57:51;41.83;;;6.45;;
9854;SDS011;4966;48.112;9.282;2022-07-29T03:00:27;26.95;;;7.43;;
9854;SDS011;4966;48.112;9.282;2022-07-29T03:02:55;26.17;;;6.20;;
9854;SDS011;4966;48.112;9.282;2022-07-29T03:05:23;47.50;;;6.20;;
9854;SDS011;4966;48.112;9.282;2022-07-29T03:07:50;19.75;;;5.38;;
9854;SDS011;4966;48.112;9.282;2022-07-29T03:10:19;20.73;;;4.93;;
9854;SDS011;4966;48.112;9.282;2022-07-29T03:12:46;15.45;;;5.15;;
9854;SDS011;4966;48.112;9.282;2022-07-29T03:15:12;18.05;;;5.15;;
9854;SDS011;4966;48.112;9.282;2022-07-29T03:17:38;18.58;;;4.75;;
9854;SDS011;4966;48.112;9.282;2022-07-29T03:20:07;18.90;;;5.40;;
9854;SDS011;4966;48.112;9.282;2022-07-29T03:22:38;22.40;;;4.93;;
9854;SDS011;4966;48.112;9.282;2022-07-29T03:25:14;42.75;;;5.88;;
9854;SDS011;4966;48.112;9.282;2022-07-29T03:27:40;27.48;;;5.70;;
9854;SDS011;4966;48.112;9.282;2022-07-29T03:30:07;19.35;;;5.63;;
9854;SDS011;4966;48.112;9.282;2022-07-29T03:32:33;26.52;;;6.35;;
9854;SDS011;4966;48.112;9.282;2022-07-29T03:34:59;39.13;;;6.65;;
9854;SDS011;4966;48.112;9.282;2022-07-29T03:37:24;28.85;;;5.18;;
9854;SDS011;4966;48.112;9.282;2022-07-29T03:39:50;11.35;;;4.38;;
9854;SDS011;4966;48.112;9.282;2022-07-29T03:42:17;17.55;;;4.90;;
9854;SDS011;4966;48.112;9.282;2022-07-29T03:44:47;13.30;;;5.82;;
9854;SDS011;4966;48.112;9.282;2022-07-29T03:47:14;10.40;;;5.85;;
9854;SDS011;4966;48.112;9.282;2022-07-29T03:49:41;28.98;;;5.40;;
9854;SDS011;4966;48.112;9.282;2022-07-29T03:52:09;56.58;;;7.80;;
9854;SDS011;4966;48.112;9.282;2022-07-29T03:54:34;29.40;;;5.68;;
9854;SDS011;4966;48.112;9.282;2022-07-29T03:57:01;33.40;;;7.10;;
9854;SDS011;4966;48.112;9.282;2022-07-29T03:59:28;20.27;;;5.75;;
9854;SDS011;4966;48.112;9.282;2022-07-29T04:01:57;17.90;;;6.13;;
9854;SDS011;4966;48.112;9.282;2022-07-29T04:04:23;29.13;;;7.13;;
9854;SDS011;4966;48.112;9.282;2022-07-29T04:06:50;16.08;;;6.05;;
9854;SDS011;4966;48.112;9.282;2022-07-29T04:09:15;23.30;;;6.00;;
9854;SDS011;4966;48.112;9.282;2022-07-29T04:11:41;46.55;;;7.57;;
9854;SDS011;4966;48.112;9.282;2022-07-29T04:14:07;18.98;;;6.65;;
9854;SDS011;4966;48.112;9.282;2022-07-29T04:16:32;22.05;;;5.85;;
9854;SDS011;4966;48.112;9.282;2022-07-29T04:18:58;9.18;;;6.25;;
9854;SDS011;4966;48.112;9.282;2022-07-29T04:21:23;10.40;;;5.38;;
9854;SDS011;4966;48.112;9.282;2022-07-29T04:23:49;11.10;;;5.20;;
9854;SDS011;4966;48.112;9.282;2022-07-29T04:26:15;9.90;;;5.72;;
9854;SDS011;4966;48.112;9.282;2022-07-29T04:28:42;17.02;;;5.38;;
9854;SDS011;4966;48.112;9.282;2022-07-29T04:31:08;10.68;;;4.50;;
9854;SDS011;4966;48.112;9.282;2022-07-29T04:33:34;12.25;;;5.00;;
9854;SDS011;4966;48.112;9.282;2022-07-29T04:35:59;14.75;;;5.80;;
9854;SDS011;4966;48.112;9.282;2022-07-29T04:38:25;10.27;;;5.43;;
9854;SDS011;4966;48.112;9.282;2022-07-29T04:40:50;17.60;;;5.53;;
9854;SDS011;4966;48.112;9.282;2022-07-29T04:43:15;9.88;;;4.80;;
9854;SDS011;4966;48.112;9.282;2022-07-29T04:45:41;9.07;;;4.32;;
9854;SDS011;4966;48.112;9.282;2022-07-29T04:48:06;10.23;;;4.90;;
9854;SDS011;4966;48.112;9.282;2022-07-29T04:50:31;13.25;;;5.40;;
9854;SDS011;4966;48.112;9.282;2022-07-29T04:52:57;21.60;;;5.72;;
9854;SDS011;4966;48.112;9.282;2022-07-29T04:55:22;30.02;;;5.68;;
9854;SDS011;4966;48.112;9.282;2022-07-29T04:57:48;31.42;;;5.22;;
9854;SDS011;4966;48.112;9.282;2022-07-29T05:00:13;26.65;;;4.95;;
9854;SDS011;4966;48.112;9.282;2022-07-29T05:02:39;8.48;;;4.15;;
9854;SDS011;4966;48.112;9.282;2022-07-29T05:05:04;11.15;;;3.70;;
9854;SDS011;4966;48.112;9.282;2022-07-29T05:07:30;12.30;;;4.18;;
9854;SDS011;4966;48.112;9.282;2022-07-29T05:09:55;5.80;;;4.03;;
9854;SDS011;4966;48.112;9.282;2022-07-29T05:12:22;9.18;;;4.78;;
9854;SDS011;4966;48.112;9.282;2022-07-29T05:14:48;5.78;;;4.30;;
9854;SDS011;4966;48.112;9.282;2022-07-29T05:17:13;6.88;;;4.43;;
9854;SDS011;4966;48.112;9.282;2022-07-29T05:19:39;7.60;;;4.50;;
9854;SDS011;4966;48.112;9.282;2022-07-29T05:22:04;10.45;;;4.50;;
9854;SDS011;4966;48.112;9.282;2022-07-29T05:24:30;7.18;;;4.35;;
9854;SDS011;4966;48.112;9.282;2022-07-29T05:26:55;5.70;;;3.95;;
9854;SDS011;4966;48.112;9.282;2022-07-29T05:29:21;6.47;;;3.88;;
9854;SDS011;4966;48.112;9.282;2022-07-29T05:31:46;6.97;;;4.68;;
9854;SDS011;4966;48.112;9.282;2022-07-29T05:34:15;7.13;;;4.85;;
9854;SDS011;4966;48.112;9.282;2022-07-29T05:36:52;7.88;;;4.50;;
9854;SDS011;4966;48.112;9.282;2022-07-29T05:39:18;6.35;;;4.18;;
9854;SDS011;4966;48.112;9.282;2022-07-29T05:41:43;6.60;;;4.40;;
9854;SDS011;4966;48.112;9.282;2022-07-29T05:44:09;5.88;;;4.20;;
9854;SDS011;4966;48.112;9.282;2022-07-29T05:46:34;5.40;;;3.92;;
9854;SDS011;4966;48.112;9.282;2022-07-29T05:49:00;5.20;;;3.75;;
9854;SDS011;4966;48.112;9.282;2022-07-29T05:51:25;8.73;;;4.43;;
9854;SDS011;4966;48.112;9.282;2022-07-29T05:53:51;5.90;;;3.97;;
9854;SDS011;4966;48.112;9.282;2022-07-29T05:56:16;6.53;;;3.88;;
9854;SDS011;4966;48.112;9.282;2022-07-29T05:58:41;7.00;;;4.47;;
9854;SDS011;4966;48.112;9.282;2022-07-29T06:01:07;5.57;;;3.55;;
9854;SDS011;4966;48.112;9.282;2022-07-29T06:03:32;8.75;;;3.90;;
9854;SDS011;4966;48.112;9.282;2022-07-29T06:05:58;7.43;;;4.25;;
9854;SDS011;4966;48.112;9.282;2022-07-29T06:08:44;5.05;;;3.63;;
9854;SDS011;4966;48.112;9.282;2022-07-29T06:11:25;7.90;;;4.13;;
9854;SDS011;4966;48.112;9.282;2022-07-29T06:13:53;4.85;;;3.30;;
9854;SDS011;4966;48.112;9.282;2022-07-29T06:16:19;5.20;;;3.00;;
9854;SDS011;4966;48.112;9.282;2022-07-29T06:18:44;4.43;;;3.58;;
9854;SDS011;4966;48.112;9.282;2022-07-29T06:21:10;5.40;;;3.65;;
9854;SDS011;4966;48.112;9.282;2022-07-29T06:23:38;3.90;;;2.97;;
9854;SDS011;4966;48.112;9.282;2022-07-29T06:26:04;5.15;;;3.40;;
9854;SDS011;4966;48.112;9.282;2022-07-29T06:28:30;5.10;;;3.30;;
9854;SDS011;4966;48.112;9.282;2022-07-29T06:30:57;6.45;;;3.38;;
9854;SDS011;4966;48.112;9.282;2022-07-29T06:33:22;4.93;;;3.17;;
9854;SDS011;4966;48.112;9.282;2022-07-29T06:35:48;5.90;;;3.60;;
9854;SDS011;4966;48.112;9.282;2022-07-29T06:38:14;5.35;;;3.83;;
9854;SDS011;4966;48.112;9.282;2022-07-29T06:40:43;4.10;;;2.90;;
9854;SDS011;4966;48.112;9.282;2022-07-29T06:43:25;5.32;;;3.15;;
9854;SDS011;4966;48.112;9.282;2022-07-29T06:46:02;8.93;;;3.83;;
9854;SDS011;4966;48.112;9.282;2022-07-29T06:48:32;6.40;;;3.42;;
9854;SDS011;4966;48.112;9.282;2022-07-29T06:50:58;4.97;;;3.33;;
9854;SDS011;4966;48.112;9.282;2022-07-29T06:53:24;5.47;;;3.13;;
9854;SDS011;4966;48.112;9.282;2022-07-29T06:55:50;4.50;;;3.17;;
9854;SDS011;4966;48.112;9.282;2022-07-29T06:58:16;5.25;;;3.38;;
9854;SDS011;4966;48.112;9.282;2022-07-29T07:00:43;4.38;;;3.22;;
9854;SDS011;4966;48.112;9.282;2022-07-29T07:03:10;6.22;;;3.58;;
9854;SDS011;4966;48.112;9.282;2022-07-29T07:05:35;4.20;;;3.10;;
9854;SDS011;4966;48.112;9.282;2022-07-29T07:08:01;4.40;;;3.33;;
9854;SDS011;4966;48.112;9.282;2022-07-29T07:10:26;6.88;;;3.60;;
9854;SDS011;4966;48.112;9.282;2022-07-29T07:12:52;3.70;;;3.05;;
9854;SDS011;4966;48.112;9.282;2022-07-29T07:15:17;6.13;;;3.38;;
9854;SDS011;4966;48.112;9.282;2022-07-29T07:17:47;8.48;;;2.85;;
9854;SDS011;4966;48.112;9.282;2022-07-29T07:20:14;3.40;;;2.35;;
9854;SDS011;4966;48.112;9.282;2022-07-29T07:22:40;4.93;;;3.00;;
9854;SDS011;4966;48.112;9.282;2022-07-29T07:25:05;5.38;;;2.47;;
9854;SDS011;4966;48.112;9.282;2022-07-29T07:27:31;3.28;;;2.40;;
9854;SDS011;4966;48.112;9.282;2022-07-29T07:29:56;3.53;;;2.78;;
9854;SDS011;4966;48.112;9.282;2022-07-29T07:32:22;4.25;;;2.80;;
9854;SDS011;4966;48.112;9.282;2022-07-29T07:34:47;5.75;;;3.20;;
9854;SDS011;4966;48.112;9.282;2022-07-29T07:37:13;6.60;;;3.97;;
9854;SDS011;4966;48.112;9.282;2022-07-29T07:39:39;13.48;;;9.25;;
9854;SDS011;4966;48.112;9.282;2022-07-29T07:42:05;6.75;;;3.88;;
9854;SDS011;4966;48.112;9.282;2022-07-29T07:44:30;5.78;;;3.50;;
9854;SDS011;4966;48.112;9.282;2022-07-29T07:46:56;6.38;;;3.42;;
9854;SDS011;4966;48.112;9.282;2022-07-29T07:49:21;4.93;;;3.20;;
9854;SDS011;4966;48.112;9.282;2022-07-29T07:51:47;4.78;;;2.92;;
9854;SDS011;4966;48.112;9.282;2022-07-29T07:54:12;4.60;;;3.00;;
9854;SDS011;4966;48.112;9.282;2022-07-29T07:56:37;4.88;;;2.85;;
9854;SDS011;4966;48.112;9.282;2022-07-29T07:59:03;8.45;;;2.65;;
9854;SDS011;4966;48.112;9.282;2022-07-29T08:01:28;4.55;;;3.38;;
9854;SDS011;4966;48.112;9.282;2022-07-29T08:03:53;4.72;;;3.17;;
9854;SDS011;4966;48.112;9.282;2022-07-29T08:06:19;4.10;;;3.30;;
9854;SDS011;4966;48.112;9.282;2022-07-29T08:08:44;5.57;;;3.05;;
9854;SDS011;4966;48.112;9.282;2022-07-29T08:11:09;3.92;;;2.90;;
9854;SDS011;4966;48.112;9.282;2022-07-29T08:13:35;4.28;;;2.90;;
9854;SDS011;4966;48.112;9.282;2022-07-29T08:16:01;4.57;;;3.25;;
9854;SDS011;4966;48.112;9.282;2022-07-29T08:18:35;7.03;;;3.25;;
9854;SDS011;4966;48.112;9.282;2022-07-29T08:21:01;5.03;;;2.90;;
9854;SDS011;4966;48.112;9.282;2022-07-29T08:23:26;4.22;;;2.83;;
9854;SDS011;4966;48.112;9.282;2022-07-29T08:25:59;4.60;;;3.33;;
9854;SDS011;4966;48.112;9.282;2022-07-29T08:28:25;6.13;;;4.78;;
9854;SDS011;4966;48.112;9.282;2022-07-29T08:30:50;4.47;;;3.25;;
9854;SDS011;4966;48.112;9.282;2022-07-29T08:33:16;3.85;;;2.85;;
9854;SDS011;4966;48.112;9.282;2022-07-29T08:35:41;11.57;;;4.55;;
9854;SDS011;4966;48.112;9.282;2022-07-29T08:38:07;6.93;;;3.70;;
9854;SDS011;4966;48.112;9.282;2022-07-29T08:40:32;6.75;;;3.47;;
9854;SDS011;4966;48.112;9.282;2022-07-29T08:42:58;5.15;;;3.00;;
9854;SDS011;4966;48.112;9.282;2022-07-29T08:45:24;5.10;;;2.90;;
9854;SDS011;4966;48.112;9.282;2022-07-29T08:47:50;6.25;;;3.35;;
9854;SDS011;4966;48.112;9.282;2022-07-29T08:50:15;4.15;;;2.80;;
9854;SDS011;4966;48.112;9.282;2022-07-29T08:52:41;5.28;;;2.83;;
9854;SDS011;4966;48.112;9.282;2022-07-29T08:55:07;5.88;;;2.78;;
9854;SDS011;4966;48.112;9.282;2022-07-29T08:57:34;3.90;;;2.75;;
9854;SDS011;4966;48.112;9.282;2022-07-29T09:00:00;5.00;;;3.33;;
9854;SDS011;4966;48.112;9.282;2022-07-29T09:02:28;5.47;;;3.22;;
9854;SDS011;4966;48.112;9.282;2022-07-29T09:04:59;4.28;;;3.00;;
9854;SDS011;4966;48.112;9.282;2022-07-29T09:07:26;7.65;;;3.35;;
9854;SDS011;4966;48.112;9.282;2022-07-29T09:09:51;5.30;;;3.47;;
9854;SDS011;4966;48.112;9.282;2022-07-29T09:12:17;6.88;;;3.65;;
9854;SDS011;4966;48.112;9.282;2022-07-29T09:14:43;10.05;;;3.70;;
9854;SDS011;4966;48.112;9.282;2022-07-29T09:17:08;5.32;;;3.85;;
9854;SDS011;4966;48.112;9.282;2022-07-29T09:19:35;4.90;;;3.38;;
9854;SDS011;4966;48.112;9.282;2022-07-29T09:22:05;6.32;;;3.83;;
9854;SDS011;4966;48.112;9.282;2022-07-29T09:27:00;6.05;;;3.97;;
9854;SDS011;4966;48.112;9.282;2022-07-29T09:29:27;7.18;;;4.25;;
9854;SDS011;4966;48.112;9.282;2022-07-29T09:31:53;9.25;;;4.35;;
9854;SDS011;4966;48.112;9.282;2022-07-29T09:34:24;6.22;;;4.03;;
9854;SDS011;4966;48.112;9.282;2022-07-29T09:36:51;7.95;;;3.65;;
9854;SDS011;4966;48.112;9.282;2022-07-29T09:42:27;6.20;;;3.70;;
9854;SDS011;4966;48.112;9.282;2022-07-29T09:44:53;6.70;;;4.15;;
9854;SDS011;4966;48.112;9.282;2022-07-29T09:47:19;4.65;;;3.53;;
9854;SDS011;4966;48.112;9.282;2022-07-29T09:49:50;8.48;;;3.78;;
9854;SDS011;4966;48.112;9.282;2022-07-29T09:52:17;9.75;;;3.83;;
9854;SDS011;4966;48.112;9.282;2022-07-29T09:54:43;6.28;;;3.85;;
9854;SDS011;4966;48.112;9.282;2022-07-29T09:57:21;7.25;;;3.60;;
9854;SDS011;4966;48.112;9.282;2022-07-29T09:59:55;6.18;;;3.38;;
9854;SDS011;4966;48.112;9.282;2022-07-29T10:02:22;4.15;;;3.20;;
9854;SDS011;4966;48.112;9.282;2022-07-29T10:04:52;6.78;;;3.67;;
9854;SDS011;4966;48.112;9.282;2022-07-29T10:07:17;6.38;;;3.47;;
9854;SDS011;4966;48.112;9.282;2022-07-29T10:10:03;6.85;;;3.17;;
9854;SDS011;4966;48.112;9.282;2022-07-29T10:12:28;5.22;;;3.35;;
9854;SDS011;4966;48.112;9.282;2022-07-29T10:14:54;7.57;;;3.53;;
9854;SDS011;4966;48.112;9.282;2022-07-29T10:17:19;4.85;;;3.72;;
9854;SDS011;4966;48.112;9.282;2022-07-29T10:19:46;6.82;;;3.67;;
9854;SDS011;4966;48.112;9.282;2022-07-29T10:22:13;4.97;;;3.78;;
9854;SDS011;4966;48.112;9.282;2022-07-29T10:24:39;4.35;;;3.38;;
9854;SDS011;4966;48.112;9.282;2022-07-29T10:27:05;4.70;;;3.58;;
9854;SDS011;4966;48.112;9.282;2022-07-29T10:29:31;4.25;;;3.25;;
9854;SDS011;4966;48.112;9.282;2022-07-29T10:35:11;6.35;;;3.40;;
9854;SDS011;4966;48.112;9.282;2022-07-29T10:37:50;5.50;;;3.60;;
9854;SDS011;4966;48.112;9.282;2022-07-29T10:43:29;4.75;;;3.05;;
9854;SDS011;4966;48.112;9.282;2022-07-29T10:46:01;4.43;;;3.30;;
9854;SDS011;4966;48.112;9.282;2022-07-29T10:48:28;6.45;;;3.35;;
9854;SDS011;4966;48.112;9.282;2022-07-29T10:51:03;4.82;;;3.40;;
9854;SDS011;4966;48.112;9.282;2022-07-29T10:53:48;7.15;;;2.83;;
9854;SDS011;4966;48.112;9.282;2022-07-29T10:56:25;4.78;;;3.20;;
9854;SDS011;4966;48.112;9.282;2022-07-29T11:01:45;5.28;;;3.30;;
9854;SDS011;4966;48.112;9.282;2022-07-29T11:04:11;4.53;;;3.42;;
9854;SDS011;4966;48.112;9.282;2022-07-29T11:09:30;7.15;;;3.67;;
9854;SDS011;4966;48.112;9.282;2022-07-29T11:11:56;4.63;;;2.97;;
9854;SDS011;4966;48.112;9.282;2022-07-29T11:17:19;4.88;;;3.55;;
9854;SDS011;4966;48.112;9.282;2022-07-29T11:19:45;4.38;;;3.30;;
9854;SDS011;4966;48.112;9.282;2022-07-29T11:22:11;4.95;;;3.17;;
9854;SDS011;4966;48.112;9.282;2022-07-29T11:27:54;3.95;;;2.60;;
9854;SDS011;4966;48.112;9.282;2022-07-29T11:30:56;3.97;;;2.80;;
9854;SDS011;4966;48.112;9.282;2022-07-29T11:33:28;11.77;;;3.03;;
9854;SDS011;4966;48.112;9.282;2022-07-29T11:36:09;5.38;;;3.05;;
9854;SDS011;4966;48.112;9.282;2022-07-29T11:38:36;4.97;;;2.92;;
9854;SDS011;4966;48.112;9.282;2022-07-29T11:41:24;4.10;;;2.70;;
9854;SDS011;4966;48.112;9.282;2022-07-29T11:43:54;4.90;;;2.55;;
9854;SDS011;4966;48.112;9.282;2022-07-29T11:49:07;4.93;;;2.67;;
9854;SDS011;4966;48.112;9.282;2022-07-29T11:51:34;5.53;;;2.50;;
9854;SDS011;4966;48.112;9.282;2022-07-29T11:54:01;6.32;;;2.38;;
9854;SDS011;4966;48.112;9.282;2022-07-29T11:56:27;2.95;;;1.83;;
9854;SDS011;4966;48.112;9.282;2022-07-29T11:59:03;3.25;;;1.90;;
9854;SDS011;4966;48.112;9.282;2022-07-29T12:01:34;5.10;;;2.65;;
9854;SDS011;4966;48.112;9.282;2022-07-29T12:04:03;4.10;;;2.00;;
9854;SDS011;4966;48.112;9.282;2022-07-29T12:06:30;2.55;;;1.88;;
9854;SDS011;4966;48.112;9.282;2022-07-29T12:08:55;7.22;;;2.20;;
9854;SDS011;4966;48.112;9.282;2022-07-29T12:11:21;4.72;;;2.20;;
9854;SDS011;4966;48.112;9.282;2022-07-29T12:13:47;3.28;;;2.00;;
9854;SDS011;4966;48.112;9.282;2022-07-29T12:16:13;4.40;;;2.30;;
9854;SDS011;4966;48.112;9.282;2022-07-29T12:18:39;5.72;;;2.08;;
9854;SDS011;4966;48.112;9.282;2022-07-29T12:21:04;5.15;;;2.30;;
9854;SDS011;4966;48.112;9.282;2022-07-29T12:23:30;4.72;;;2.05;;
9854;SDS011;4966;48.112;9.282;2022-07-29T12:25:59;5.15;;;2.20;;
9854;SDS011;4966;48.112;9.282;2022-07-29T12:28:25;6.57;;;2.30;;
9854;SDS011;4966;48.112;9.282;2022-07-29T12:30:51;2.75;;;2.00;;
9854;SDS011;4966;48.112;9.282;2022-07-29T12:33:19;5.97;;;2.10;;
9854;SDS011;4966;48.112;9.282;2022-07-29T12:35:59;4.38;;;2.17;;
9854;SDS011;4966;48.112;9.282;2022-07-29T12:38:26;5.35;;;2.40;;
9854;SDS011;4966;48.112;9.282;2022-07-29T12:40:53;5.32;;;2.17;;
9854;SDS011;4966;48.112;9.282;2022-07-29T12:43:20;8.25;;;2.50;;
9854;SDS011;4966;48.112;9.282;2022-07-29T12:45:48;6.25;;;2.30;;
9854;SDS011;4966;48.112;9.282;2022-07-29T12:48:15;3.00;;;2.33;;
9854;SDS011;4966;48.112;9.282;2022-07-29T12:50:55;5.05;;;2.20;;
9854;SDS011;4966;48.112;9.282;2022-07-29T12:53:25;4.13;;;2.42;;
9854;SDS011;4966;48.112;9.282;2022-07-29T12:55:51;4.40;;;2.30;;
9854;SDS011;4966;48.112;9.282;2022-07-29T13:03:41;3.50;;;2.40;;
9854;SDS011;4966;48.112;9.282;2022-07-29T13:06:26;3.72;;;2.20;;
9854;SDS011;4966;48.112;9.282;2022-07-29T13:08:58;5.72;;;2.58;;
9854;SDS011;4966;48.112;9.282;2022-07-29T13:11:27;7.10;;;2.15;;
9854;SDS011;4966;48.112;9.282;2022-07-29T13:13:57;5.07;;;2.25;;
9854;SDS011;4966;48.112;9.282;2022-07-29T13:16:23;3.42;;;2.30;;
9854;SDS011;4966;48.112;9.282;2022-07-29T13:19:02;4.95;;;2.35;;
9854;SDS011;4966;48.112;9.282;2022-07-29T13:21:31;4.15;;;2.25;;
9854;SDS011;4966;48.112;9.282;2022-07-29T13:23:57;3.17;;;2.20;;
9854;SDS011;4966;48.112;9.282;2022-07-29T13:26:22;2.83;;;2.10;;
9854;SDS011;4966;48.112;9.282;2022-07-29T13:28:47;3.30;;;2.15;;
9854;SDS011;4966;48.112;9.282;2022-07-29T13:31:13;4.15;;;2.30;;
9854;SDS011;4966;48.112;9.282;2022-07-29T13:33:38;5.78;;;2.47;;
9854;SDS011;4966;48.112;9.282;2022-07-29T13:36:04;4.18;;;2.22;;
9854;SDS011;4966;48.112;9.282;2022-07-29T13:38:29;6.88;;;2.60;;
9854;SDS011;4966;48.112;9.282;2022-07-29T13:40:55;4.82;;;3.20;;
9854;SDS011;4966;48.112;9.282;2022-07-29T13:43:20;4.50;;;2.95;;
9854;SDS011;4966;48.112;9.282;2022-07-29T13:45:45;5.03;;;3.13;;
9854;SDS011;4966;48.112;9.282;2022-07-29T13:48:11;6.80;;;3.63;;
9854;SDS011;4966;48.112;9.282;2022-07-29T13:50:36;6.10;;;3.00;;
9854;SDS011;4966;48.112;9.282;2022-07-29T13:53:02;6.55;;;2.97;;
9854;SDS011;4966;48.112;9.282;2022-07-29T13:55:27;5.78;;;3.25;;
9854;SDS011;4966;48.112;9.282;2022-07-29T13:57:52;4.70;;;3.03;;
9854;SDS011;4966;48.112;9.282;2022-07-29T14:00:18;6.70;;;3.03;;
9854;SDS011;4966;48.112;9.282;2022-07-29T14:02:44;5.20;;;2.63;;
9854;SDS011;4966;48.112;9.282;2022-07-29T14:05:09;3.92;;;2.50;;
9854;SDS011;4966;48.112;9.282;2022-07-29T14:07:36;5.85;;;2.90;;
9854;SDS011;4966;48.112;9.282;2022-07-29T14:10:03;6.93;;;3.03;;
9854;SDS011;4966;48.112;9.282;2022-07-29T14:12:29;5.35;;;2.88;;
9854;SDS011;4966;48.112;9.282;2022-07-29T14:14:54;6.18;;;3.10;;
9854;SDS011;4966;48.112;9.282;2022-07-29T14:17:20;3.65;;;2.63;;
9854;SDS011;4966;48.112;9.282;2022-07-29T14:19:45;5.80;;;3.25;;
9854;SDS011;4966;48.112;9.282;2022-07-29T14:22:11;7.57;;;3.65;;
9854;SDS011;4966;48.112;9.282;2022-07-29T14:24:36;5.07;;;3.70;;
9854;SDS011;4966;48.112;9.282;2022-07-29T14:27:05;6.03;;;3.20;;
9854;SDS011;4966;48.112;9.282;2022-07-29T14:29:31;5.05;;;3.22;;
9854;SDS011;4966;48.112;9.282;2022-07-29T14:31:57;6.30;;;3.53;;
9854;SDS011;4966;48.112;9.282;2022-07-29T14:34:23;5.15;;;3.30;;
9854;SDS011;4966;48.112;9.282;2022-07-29T14:36:49;6.20;;;3.70;;
9854;SDS011;4966;48.112;9.282;2022-07-29T14:39:14;5.72;;;3.97;;
9854;SDS011;4966;48.112;9.282;2022-07-29T14:41:40;8.07;;;3.92;;
9854;SDS011;4966;48.112;9.282;2022-07-29T14:44:06;13.45;;;3.97;;
9854;SDS011;4966;48.112;9.282;2022-07-29T14:46:31;7.85;;;4.00;;
9854;SDS011;4966;48.112;9.282;2022-07-29T14:48:56;6.65;;;3.53;;
9854;SDS011;4966;48.112;9.282;2022-07-29T14:51:22;8.35;;;3.97;;
9854;SDS011;4966;48.112;9.282;2022-07-29T14:53:47;5.03;;;3.50;;
9854;SDS011;4966;48.112;9.282;2022-07-29T14:56:13;5.32;;;3.08;;
9854;SDS011;4966;48.112;9.282;2022-07-29T14:58:38;4.32;;;3.13;;
9854;SDS011;4966;48.112;9.282;2022-07-29T15:01:03;4.80;;;3.13;;
9854;SDS011;4966;48.112;9.282;2022-07-29T15:03:29;5.03;;;3.15;;
9854;SDS011;4966;48.112;9.282;2022-07-29T15:05:54;5.18;;;2.90;;
9854;SDS011;4966;48.112;9.282;2022-07-29T15:08:20;5.13;;;2.83;;
9854;SDS011;4966;48.112;9.282;2022-07-29T15:10:45;4.65;;;3.22;;
9854;SDS011;4966;48.112;9.282;2022-07-29T15:13:11;3.88;;;2.67;;
9854;SDS011;4966;48.112;9.282;2022-07-29T15:15:36;5.20;;;2.78;;
9854;SDS011;4966;48.112;9.282;2022-07-29T15:18:02;6.13;;;2.97;;
9854;SDS011;4966;48.112;9.282;2022-07-29T15:20:27;7.00;;;3.20;;
9854;SDS011;4966;48.112;9.282;2022-07-29T15:22:53;3.50;;;2.17;;
9854;SDS011;4966;48.112;9.282;2022-07-29T15:25:20;4.97;;;2.65;;
9854;SDS011;4966;48.112;9.282;2022-07-29T15:27:46;4.40;;;2.75;;
9854;SDS011;4966;48.112;9.282;2022-07-29T15:30:12;5.18;;;2.80;;
9854;SDS011;4966;48.112;9.282;2022-07-29T15:32:37;3.55;;;2.63;;
9854;SDS011;4966;48.112;9.282;2022-07-29T15:35:03;5.18;;;3.20;;
9854;SDS011;4966;48.112;9.282;2022-07-29T15:37:28;4.47;;;2.53;;
9854;SDS011;4966;48.112;9.282;2022-07-29T15:39:54;4.80;;;3.15;;
9854;SDS011;4966;48.112;9.282;2022-07-29T15:42:19;7.88;;;3.10;;
9854;SDS011;4966;48.112;9.282;2022-07-29T15:44:45;7.38;;;3.50;;
9854;SDS011;4966;48.112;9.282;2022-07-29T15:47:10;3.88;;;2.97;;
9854;SDS011;4966;48.112;9.282;2022-07-29T15:49:36;5.03;;;3.53;;
9854;SDS011;4966;48.112;9.282;2022-07-29T15:52:04;5.32;;;3.10;;
9854;SDS011;4966;48.112;9.282;2022-07-29T15:54:31;6.15;;;3.95;;
9854;SDS011;4966;48.112;9.282;2022-07-29T15:56:58;6.65;;;3.60;;
9854;SDS011;4966;48.112;9.282;2022-07-29T15:59:23;6.18;;;3.47;;
9854;SDS011;4966;48.112;9.282;2022-07-29T16:01:49;5.20;;;3.33;;
9854;SDS011;4966;48.112;9.282;2022-07-29T16:04:15;7.07;;;3.70;;
9854;SDS011;4966;48.112;9.282;2022-07-29T16:06:41;4.97;;;3.65;;
9854;SDS011;4966;48.112;9.282;2022-07-29T16:09:07;7.55;;;3.72;;
9854;SDS011;4966;48.112;9.282;2022-07-29T16:11:33;5.00;;;3.55;;